createdAt,value
2018-04-11T00:02:10.366Z,96904.52
2018-04-11T00:04:39.371Z,96895.55
2018-04-11T00:07:07.631Z,96891.67
2018-04-11T00:09:35.851Z,96894.72
2018-04-11T00:12:04.894Z,96890.59
2018-04-11T00:14:33.123Z,96895.27
2018-04-11T00:17:01.371Z,96890.69
2018-04-11T00:19:29.627Z,96899.22
2018-04-11T00:21:58.699Z,96894.04
2018-04-11T00:24:26.956Z,96892.86
2018-04-11T00:26:55.223Z,96892.30
2018-04-11T00:29:24.236Z,96888.89
2018-04-11T00:31:53.235Z,96892.02
2018-04-11T00:34:22.243Z,96897.27
2018-04-11T00:36:56.002Z,96894.34
2018-04-11T00:39:24.257Z,96893.47
2018-04-11T00:41:52.481Z,96897.98
2018-04-11T00:44:20.730Z,96896.11
2018-04-11T00:46:48.982Z,96892.08
2018-04-11T00:49:17.235Z,96882.86
2018-04-11T00:51:45.495Z,96883.48
2018-04-11T00:54:13.753Z,96881.43
2018-04-11T00:56:42.081Z,96875.55
2018-04-11T00:59:10.318Z,96881.94
2018-04-11T01:01:38.567Z,96883.37
2018-04-11T01:04:06.839Z,96888.66
2018-04-11T01:06:35.066Z,96882.59
2018-04-11T01:09:03.312Z,96887.98
2018-04-11T01:11:32.407Z,96882.15
2018-04-11T01:14:01.421Z,96883.78
2018-04-11T01:16:31.051Z,96880.56
2018-04-11T01:19:00.058Z,96882.41
2018-04-11T01:21:28.290Z,96877.38
2018-04-11T01:23:56.555Z,96877.20
2018-04-11T01:26:24.798Z,96874.95
2018-04-11T01:28:53.930Z,96880.03
2018-04-11T01:31:22.187Z,96876.96
2018-04-11T01:33:50.459Z,96872.89
2018-04-11T01:36:18.694Z,96874.21
2018-04-11T01:38:48.278Z,96873.98
2018-04-11T01:41:16.532Z,96866.72
2018-04-11T01:43:44.780Z,96871.95
2018-04-11T01:46:13.815Z,96869.08
2018-04-11T01:48:43.039Z,96871.01
2018-04-11T01:51:11.283Z,96869.89
2018-04-11T01:53:40.280Z,96869.44
2018-04-11T01:56:08.558Z,96863.69
2018-04-11T01:58:36.799Z,96862.30
2018-04-11T02:01:06.507Z,96859.71
2018-04-11T02:03:34.729Z,96861.55
2018-04-11T02:06:03.752Z,96860.95
2018-04-11T02:08:31.997Z,96858.33
2018-04-11T02:11:00.227Z,96865.43
2018-04-11T02:13:28.451Z,96861.19
2018-04-11T02:15:57.473Z,96867.38
2018-04-11T02:18:25.733Z,96865.80
2018-04-11T02:20:55.305Z,96863.77
2018-04-11T02:23:23.542Z,96862.80
2018-04-11T02:25:52.588Z,96864.43
2018-04-11T02:28:20.832Z,96863.58
2018-04-11T02:30:49.091Z,96872.30
2018-04-11T02:33:17.328Z,96869.64
2018-04-11T02:35:46.363Z,96872.14
2018-04-11T02:38:14.636Z,96867.41
2018-04-11T02:40:42.917Z,96867.55
2018-04-11T02:43:11.915Z,96869.48
2018-04-11T02:45:40.923Z,96870.48
2018-04-11T02:48:10.661Z,96874.37
2018-04-11T02:50:38.903Z,96867.23
2018-04-11T02:53:07.145Z,96870.11
2018-04-11T02:55:35.416Z,96865.73
2018-04-11T02:58:04.414Z,96867.73
2018-04-11T03:00:33.421Z,96870.92
2018-04-11T03:03:02.426Z,96869.55
2018-04-11T03:05:31.417Z,96875.96
2018-04-11T03:07:59.671Z,96867.94
2018-04-11T03:10:27.910Z,96868.55
2018-04-11T03:12:57.543Z,96865.25
2018-04-11T03:15:25.769Z,96867.25
2018-04-11T03:17:54.024Z,96869.28
2018-04-11T03:20:22.253Z,96873.88
2018-04-11T03:22:50.532Z,96869.79
2018-04-11T03:25:18.761Z,96878.08
2018-04-11T03:27:47.014Z,96881.58
2018-04-11T03:30:15.275Z,96876.52
2018-04-11T03:32:43.678Z,96872.15
2018-04-11T03:35:11.955Z,96874.97
2018-04-11T03:37:40.199Z,96871.39
2018-04-11T03:40:08.430Z,96882.30
2018-04-11T03:42:36.670Z,96881.25
2018-04-11T03:45:04.906Z,96874.95
2018-04-11T03:47:34.514Z,96879.75
2018-04-11T03:50:02.779Z,96883.16
2018-04-11T03:52:31.043Z,96876.61
2018-04-11T03:54:59.268Z,96883.87
2018-04-11T03:57:28.323Z,96882.50
2018-04-11T03:59:56.550Z,96887.73
2018-04-11T04:02:24.878Z,96886.54
2018-04-11T04:04:53.878Z,96889.10
2018-04-11T04:07:22.878Z,96889.03
2018-04-11T04:09:51.876Z,96890.06
2018-04-11T04:12:20.889Z,96904.38
2018-04-11T04:15:07.742Z,96894.78
2018-04-11T04:17:53.742Z,96896.72
2018-04-11T04:20:42.119Z,96901.78
2018-04-11T04:23:10.384Z,96900.72
2018-04-11T04:25:39.387Z,96913.19
2018-04-11T04:28:07.645Z,96902.41
2018-04-11T04:30:35.874Z,96900.67
2018-04-11T04:33:04.136Z,96900.17
2018-04-11T04:35:33.118Z,96904.16
2018-04-11T04:38:01.393Z,96908.34
2018-04-11T04:40:29.635Z,96914.39
2018-04-11T04:42:57.898Z,96913.55
2018-04-11T04:45:26.985Z,96910.28
2018-04-11T04:47:55.227Z,96917.91
2018-04-11T04:50:23.458Z,96917.50
2018-04-11T04:52:51.714Z,96917.84
2018-04-11T04:55:19.983Z,96924.66
2018-04-11T04:57:49.722Z,96916.26
2018-04-11T05:00:18.013Z,96920.30
2018-04-11T05:02:46.254Z,96918.16
2018-04-11T05:05:14.500Z,96920.98
2018-04-11T05:07:42.785Z,96922.93
2018-04-11T05:10:11.763Z,96928.14
2018-04-11T05:12:40.749Z,96926.81
2018-04-11T05:15:09.774Z,96932.86
2018-04-11T05:17:38.791Z,96928.05
2018-04-11T05:20:07.047Z,96940.39
2018-04-11T05:22:35.277Z,96934.52
2018-04-11T05:25:03.547Z,96943.32
2018-04-11T05:27:31.782Z,96937.14
2018-04-11T05:30:00.037Z,96943.47
2018-04-11T05:32:28.268Z,96942.49
2018-04-11T05:34:56.517Z,96941.58
2018-04-11T05:37:24.753Z,96947.76
2018-04-11T05:39:53.007Z,96947.17
2018-04-11T05:42:21.244Z,96945.95
2018-04-11T05:44:50.271Z,96944.98
2018-04-11T05:47:20.006Z,96942.30
2018-04-11T05:49:48.250Z,96950.15
2018-04-11T05:52:16.499Z,96936.22
2018-04-11T05:54:44.755Z,96938.03
2018-04-11T05:57:13.778Z,96942.36
2018-04-11T05:59:42.072Z,96941.54
2018-04-11T06:02:10.304Z,96944.75
2018-04-11T06:04:38.562Z,96950.59
2018-04-11T06:07:06.781Z,96950.69
2018-04-11T06:09:35.039Z,96949.76
2018-04-11T06:12:03.267Z,96942.61
2018-04-11T06:14:31.493Z,96949.00
2018-04-11T06:16:59.825Z,96946.67
2018-04-11T06:19:29.014Z,96945.17
2018-04-11T06:21:57.279Z,96945.98
2018-04-11T06:24:26.291Z,96941.45
2018-04-11T06:26:54.580Z,96950.89
2018-04-11T06:29:22.828Z,96942.55
2018-04-11T06:31:52.404Z,96942.22
2018-04-11T06:34:20.623Z,96948.77
2018-04-11T06:36:48.884Z,96934.64
2018-04-11T06:39:17.116Z,96946.09
2018-04-11T06:41:45.453Z,96941.44
2018-04-11T06:44:13.694Z,96943.79
2018-04-11T06:46:41.956Z,96940.41
2018-04-11T06:49:10.198Z,96934.44
2018-04-11T06:51:39.589Z,96936.30
2018-04-11T06:54:07.832Z,96925.39
2018-04-11T06:56:36.092Z,96926.97
2018-04-11T06:59:04.334Z,96930.59
2018-04-11T07:01:32.623Z,96935.77
2018-04-11T07:04:00.879Z,96939.23
2018-04-11T07:06:29.147Z,96940.05
2018-04-11T07:08:57.400Z,96933.48
2018-04-11T07:11:25.654Z,96935.72
2018-04-11T07:13:53.896Z,96937.51
2018-04-11T07:16:22.951Z,96930.08
2018-04-11T07:18:51.199Z,96936.52
2018-04-11T07:21:20.225Z,96936.13
2018-04-11T07:23:48.463Z,96927.36
2018-04-11T07:26:16.738Z,96930.83
2018-04-11T07:28:45.019Z,96928.66
2018-04-11T07:31:13.322Z,96928.58
2018-04-11T07:33:41.566Z,96931.81
2018-04-11T07:36:09.843Z,96932.16
2018-04-11T07:38:39.594Z,96930.51
2018-04-11T07:41:07.875Z,96920.14
2018-04-11T07:43:36.129Z,96925.44
2018-04-11T07:46:04.449Z,96932.33
2018-04-11T07:48:32.669Z,96933.72
2018-04-11T07:51:00.909Z,96927.59
2018-04-11T07:53:30.008Z,96929.92
2018-04-11T07:55:58.259Z,96937.66
2018-04-11T07:58:26.512Z,96942.20
2018-04-11T08:00:54.755Z,96940.92
2018-04-11T08:03:23.056Z,96947.30
2018-04-11T08:05:51.346Z,96946.15
2018-04-11T08:08:19.604Z,96947.16
2018-04-11T08:10:47.849Z,96938.19
2018-04-11T08:13:16.131Z,96937.13
2018-04-11T08:15:45.170Z,96929.23
2018-04-11T08:18:13.445Z,96935.63
2018-04-11T08:20:41.691Z,96930.73
2018-04-11T08:23:09.981Z,96928.00
2018-04-11T08:25:38.323Z,96925.05
2018-04-11T08:28:06.606Z,96928.80
2018-04-11T08:30:34.864Z,96923.10
2018-04-11T08:33:03.923Z,96923.45
2018-04-11T08:35:32.181Z,96918.23
2018-04-11T08:38:00.461Z,96921.14
2018-04-11T08:40:29.454Z,96913.50
2018-04-11T08:42:58.471Z,96912.88
2018-04-11T08:45:27.479Z,96914.58
2018-04-11T08:47:56.482Z,96915.08
2018-04-11T08:50:25.482Z,96911.95
2018-04-11T08:52:54.519Z,96916.76
2018-04-11T08:55:22.809Z,96916.05
2018-04-11T08:57:51.047Z,96912.69
2018-04-11T09:00:19.323Z,96909.82
2018-04-11T09:02:47.583Z,96914.63
2018-04-11T09:05:15.849Z,96916.45
2018-04-11T09:07:44.116Z,96923.27
2018-04-11T09:10:12.387Z,96908.70
2018-04-11T09:12:40.643Z,96918.58
2018-04-11T09:15:08.898Z,96913.24
2018-04-11T09:17:37.155Z,96914.44
2018-04-11T09:20:05.400Z,96903.75
2018-04-11T09:22:33.651Z,96901.66
2018-04-11T09:25:04.195Z,96901.65
2018-04-11T09:27:34.851Z,96899.52
2018-04-11T09:30:03.370Z,96900.23
2018-04-11T09:32:32.811Z,96892.41
2018-04-11T09:35:03.234Z,96894.28
2018-04-11T09:37:31.474Z,96895.66
2018-04-11T09:40:00.493Z,96896.13
2018-04-11T09:42:29.494Z,96897.26
2018-04-11T09:44:59.240Z,96893.47
2018-04-11T09:47:29.174Z,96902.35
2018-04-11T09:49:58.132Z,96889.16
2018-04-11T09:52:27.257Z,96890.27
2018-04-11T09:54:56.474Z,96884.95
2018-04-11T09:57:27.125Z,96883.61
2018-04-11T09:59:57.739Z,96880.86
2018-04-11T10:02:27.504Z,96877.61
2018-04-11T10:04:55.753Z,96879.69
2018-04-11T10:07:24.785Z,96869.97
2018-04-11T10:09:53.023Z,96874.37
2018-04-11T10:12:21.272Z,96872.28
2018-04-11T10:14:50.323Z,96870.36
2018-04-11T10:17:18.566Z,96863.13
2018-04-11T10:19:47.582Z,96855.92
2018-04-11T10:22:15.830Z,96860.03
2018-04-11T10:24:44.149Z,96854.51
2018-04-11T10:27:13.154Z,96855.02
2018-04-11T10:29:41.727Z,96855.95
2018-04-11T10:32:09.968Z,96857.77
2018-04-11T10:34:38.261Z,96856.22
2018-04-11T10:37:06.511Z,96843.85
2018-04-11T10:39:35.537Z,96851.42
2018-04-11T10:42:03.779Z,96854.80
2018-04-11T10:44:32.066Z,96847.95
2018-04-11T10:47:00.299Z,96841.81
2018-04-11T10:49:28.542Z,96832.64
2018-04-11T10:51:56.803Z,96843.66
2018-04-11T10:54:25.047Z,96839.83
2018-04-11T10:56:54.092Z,96837.35
2018-04-11T10:59:23.815Z,96836.89
2018-04-11T11:01:52.074Z,96840.05
2018-04-11T11:04:21.059Z,96838.11
2018-04-11T11:06:50.099Z,96840.36
2018-04-11T11:09:18.346Z,96833.48
2018-04-11T11:11:46.623Z,96840.95
2018-04-11T11:14:15.468Z,96832.13
2018-04-11T11:16:43.758Z,96823.86
2018-04-11T11:19:12.965Z,96811.98
2018-04-11T11:21:41.332Z,96817.94
2018-04-11T11:24:09.593Z,96808.70
2018-04-11T11:26:37.850Z,96814.78
2018-04-11T11:29:06.115Z,96809.69
2018-04-11T11:31:35.203Z,96810.38
2018-04-11T11:34:03.459Z,96805.34
2018-04-11T11:36:31.716Z,96795.44
2018-04-11T11:38:59.970Z,96800.05
2018-04-11T11:41:28.231Z,96798.56
2018-04-11T11:43:57.240Z,96792.20
2018-04-11T11:46:25.491Z,96786.41
2018-04-11T11:48:53.735Z,96790.91
2018-04-11T11:51:22.020Z,96787.36
2018-04-11T11:53:50.320Z,96786.27
2018-04-11T11:56:18.583Z,96776.80
2018-04-11T11:58:46.836Z,96786.52
2018-04-11T12:01:15.115Z,96790.57
2018-04-11T12:03:43.403Z,96777.06
2018-04-11T12:06:12.421Z,96780.84
2018-04-11T12:08:40.666Z,96786.83
2018-04-11T12:11:08.975Z,96777.48
2018-04-11T12:13:38.003Z,96768.75
2018-04-11T12:16:06.236Z,96767.92
2018-04-11T12:18:34.487Z,96774.60
2018-04-11T12:21:02.736Z,96771.41
2018-04-11T12:23:31.001Z,96771.86
2018-04-11T12:25:59.243Z,96769.81
2018-04-11T12:28:27.502Z,96771.92
2018-04-11T12:30:55.761Z,96762.27
2018-04-11T12:33:24.011Z,96759.59
2018-04-11T12:35:52.335Z,96753.82
2018-04-11T12:38:20.591Z,96751.63
2018-04-11T12:40:48.840Z,96757.34
2018-04-11T12:43:17.118Z,96750.33
2018-04-11T12:45:45.393Z,96747.89
2018-04-11T12:48:14.493Z,96740.91
2018-04-11T12:50:42.769Z,96736.46
2018-04-11T12:53:11.050Z,96737.41
2018-04-11T12:55:39.281Z,96736.02
2018-04-11T12:58:07.598Z,96736.56
2018-04-11T13:00:35.818Z,96734.30
2018-04-11T13:03:04.083Z,96735.77
2018-04-11T13:05:33.083Z,96742.02
2018-04-11T13:08:02.125Z,96726.64
2018-04-11T13:10:30.369Z,96720.30
2018-04-11T13:12:58.631Z,96715.93
2018-04-11T13:15:26.880Z,96713.53
2018-04-11T13:17:55.139Z,96707.63
2018-04-11T13:20:24.147Z,96703.16
2018-04-11T13:22:53.198Z,96705.14
2018-04-11T13:25:21.435Z,96698.69
2018-04-11T13:27:49.689Z,96691.42
2018-04-11T13:30:17.943Z,96688.67
2018-04-11T13:32:46.239Z,96682.68
2018-04-11T13:35:15.264Z,96678.05
2018-04-11T13:37:44.364Z,96674.19
2018-04-11T13:40:12.734Z,96672.84
2018-04-11T13:42:42.575Z,96664.49
2018-04-11T13:45:10.823Z,96668.94
2018-04-11T13:47:40.814Z,96672.09
2018-04-11T13:50:09.051Z,96663.55
2018-04-11T13:52:38.072Z,96665.59
2018-04-11T13:55:06.327Z,96661.53
2018-04-11T13:57:34.587Z,96661.05
2018-04-11T14:00:02.887Z,96666.36
2018-04-11T14:02:31.184Z,96650.82
2018-04-11T14:04:59.397Z,96654.20
2018-04-11T14:07:27.637Z,96648.66
2018-04-11T14:09:55.916Z,96646.81
2018-04-11T14:12:24.200Z,96646.05
2018-04-11T14:14:52.456Z,96648.44
2018-04-11T14:17:22.208Z,96643.88
2018-04-11T14:19:50.465Z,96634.86
2018-04-11T14:22:18.712Z,96632.60
2018-04-11T14:24:46.978Z,96640.07
2018-04-11T14:27:16.007Z,96631.86
2018-04-11T14:29:45.220Z,96633.13
2018-04-11T14:32:13.488Z,96631.78
2018-04-11T14:34:42.040Z,96636.86
2018-04-11T14:37:11.039Z,96628.94
2018-04-11T14:39:40.091Z,96618.84
2018-04-11T14:42:08.351Z,96619.22
2018-04-11T14:44:37.380Z,96620.50
2018-04-11T14:47:05.671Z,96619.65
2018-04-11T14:49:34.686Z,96619.02
2018-04-11T14:52:02.939Z,96620.44
2018-04-11T14:54:31.954Z,96616.52
2018-04-11T14:57:00.963Z,96615.41
2018-04-11T14:59:30.005Z,96617.68
2018-04-11T15:01:58.241Z,96614.14
2018-04-11T15:04:27.269Z,96607.63
2018-04-11T15:06:55.519Z,96603.65
2018-04-11T15:09:23.779Z,96601.55
2018-04-11T15:11:52.031Z,96607.81
2018-04-11T15:14:21.080Z,96601.42
2018-04-11T15:16:49.342Z,96602.02
2018-04-11T15:19:17.592Z,96600.33
2018-04-11T15:21:45.882Z,96600.63
2018-04-11T15:24:14.907Z,96604.39
2018-04-11T15:26:43.935Z,96593.50
2018-04-11T15:29:12.231Z,96593.50
2018-04-11T15:31:40.522Z,96602.91
2018-04-11T15:34:08.776Z,96597.12
2018-04-11T15:36:37.059Z,96586.02
2018-04-11T15:39:05.489Z,96590.32
2018-04-11T15:41:33.753Z,96597.34
2018-04-11T15:44:02.758Z,96594.94
2018-04-11T15:46:37.099Z,96594.43
2018-04-11T15:49:05.352Z,96594.58
2018-04-11T15:51:33.613Z,96587.78
2018-04-11T15:54:01.871Z,96587.88
2018-04-11T15:56:31.259Z,96590.22
2018-04-11T15:58:59.545Z,96587.63
2018-04-11T16:01:27.811Z,96589.27
2018-04-11T16:03:56.051Z,96589.64
2018-04-11T16:06:24.312Z,96592.70
2018-04-11T16:08:52.553Z,96580.04
2018-04-11T16:11:20.829Z,96579.48
2018-04-11T16:13:49.834Z,96577.42
2018-04-11T16:16:18.890Z,96580.11
2018-04-11T16:18:47.127Z,96574.19
2018-04-11T16:21:15.444Z,96578.04
2018-04-11T16:23:43.739Z,96571.55
2018-04-11T16:26:12.019Z,96563.25
2018-04-11T16:28:40.305Z,96562.02
2018-04-11T16:31:08.570Z,96563.97
2018-04-11T16:33:36.824Z,96562.61
2018-04-11T16:36:05.082Z,96555.30
2018-04-11T16:38:33.356Z,96553.86
2018-04-11T16:41:01.598Z,96551.40
2018-04-11T16:43:30.628Z,96556.02
2018-04-11T16:45:59.519Z,96552.81
2018-04-11T16:48:28.543Z,96549.09
2018-04-11T16:50:56.812Z,96547.06
2018-04-11T16:53:25.868Z,96552.08
2018-04-11T16:55:55.254Z,96547.34
2018-04-11T16:58:23.552Z,96545.02
2018-04-11T17:00:51.817Z,96547.25
2018-04-11T17:03:20.869Z,96547.41
2018-04-11T17:05:49.135Z,96542.80
2018-04-11T17:08:18.150Z,96544.91
2018-04-11T17:10:46.400Z,96543.80
2018-04-11T17:13:15.464Z,96540.77
2018-04-11T17:15:44.507Z,96537.11
2018-04-11T17:18:12.786Z,96533.74
2018-04-11T17:20:58.735Z,96539.98
2018-04-11T17:23:44.645Z,96538.55
2018-04-11T17:29:44.066Z,96529.53
2018-04-11T17:32:12.330Z,96524.63
2018-04-11T17:34:40.586Z,96531.36
2018-04-11T17:37:08.856Z,96520.52
2018-04-11T17:39:37.138Z,96521.02
2018-04-11T17:42:06.150Z,96516.59
2018-04-11T17:44:35.184Z,96519.45
2018-04-11T17:47:03.428Z,96521.67
2018-04-11T17:49:32.451Z,96520.88
2018-04-11T17:52:00.699Z,96524.51
2018-04-11T17:54:28.967Z,96517.19
2018-04-11T17:56:57.347Z,96526.88
2018-04-11T17:59:25.609Z,96518.49
2018-04-11T18:01:53.854Z,96520.77
2018-04-11T18:04:22.112Z,96515.52
2018-04-11T18:06:51.118Z,96509.02
2018-04-11T18:09:19.462Z,96513.13
2018-04-11T18:11:49.212Z,96503.92
2018-04-11T18:14:17.481Z,96506.88
2018-04-11T18:16:46.533Z,96508.91
2018-04-11T18:19:14.804Z,96513.38
2018-04-11T18:21:43.059Z,96508.77
2018-04-11T18:24:11.315Z,96508.41
2018-04-11T18:26:39.560Z,96520.22
2018-04-11T18:29:07.833Z,96520.56
2018-04-11T18:31:36.063Z,96516.36
2018-04-11T18:34:04.327Z,96515.02
2018-04-11T18:36:32.557Z,96512.42
2018-04-11T18:39:00.806Z,96513.93
2018-04-11T18:41:29.850Z,96514.38
2018-04-11T18:43:58.168Z,96515.70
2018-04-11T18:46:26.417Z,96517.06
2018-04-11T18:48:54.680Z,96511.35
2018-04-11T18:51:22.926Z,96514.08
2018-04-11T18:53:51.207Z,96508.34
2018-04-11T18:56:20.236Z,96516.08
2018-04-11T18:58:49.294Z,96518.83
2018-04-11T19:01:17.540Z,96510.23
2018-04-11T19:03:46.635Z,96506.00
2018-04-11T19:06:14.885Z,96513.17
2018-04-11T19:08:43.149Z,96510.23
2018-04-11T19:11:11.408Z,96503.57
2018-04-11T19:13:40.478Z,96509.77
2018-04-11T19:16:08.735Z,96506.91
2018-04-11T19:18:36.975Z,96499.48
2018-04-11T19:21:05.245Z,96501.97
2018-04-11T19:23:33.486Z,96504.21
2018-04-11T19:26:02.512Z,96501.42
2018-04-11T19:28:30.760Z,96494.63
2018-04-11T19:30:59.075Z,96497.73
2018-04-11T19:33:28.687Z,96494.19
2018-04-11T19:35:58.442Z,96490.19
2018-04-11T19:38:26.741Z,96486.02
2018-04-11T19:40:56.135Z,96486.52
2018-04-11T19:43:24.387Z,96481.55
2018-04-11T19:45:52.662Z,96479.97
2018-04-11T19:48:20.903Z,96475.54
2018-04-11T19:50:49.171Z,96478.86
2018-04-11T19:53:18.215Z,96468.98
2018-04-11T19:55:46.541Z,96475.95
2018-04-11T19:58:14.749Z,96473.44
2018-04-11T20:00:43.045Z,96464.22
2018-04-11T20:03:11.304Z,96463.45
2018-04-11T20:05:39.581Z,96466.78
2018-04-11T20:08:07.849Z,96456.61
2018-04-11T20:10:36.117Z,96450.55
2018-04-11T20:13:04.366Z,96448.98
2018-04-11T20:15:32.612Z,96450.77
2018-04-11T20:18:00.858Z,96443.19
2018-04-11T20:20:29.882Z,96437.70
2018-04-11T20:22:58.904Z,96439.86
2018-04-11T20:25:27.896Z,96441.61
2018-04-11T20:27:56.930Z,96438.36
2018-04-11T20:30:25.180Z,96435.69
2018-04-11T20:32:54.211Z,96431.95
2018-04-11T20:35:22.464Z,96425.47
2018-04-11T20:37:50.778Z,96426.01
2018-04-11T20:40:19.793Z,96426.37
2018-04-11T20:42:48.088Z,96414.33
2018-04-11T20:45:16.305Z,96414.64
2018-04-11T20:47:44.588Z,96408.40
2018-04-11T20:50:12.858Z,96403.25
2018-04-11T20:52:41.088Z,96397.95
2018-04-11T20:55:10.246Z,96397.34
2018-04-11T20:57:38.511Z,96392.61
2018-04-11T21:00:07.511Z,96385.59
2018-04-11T21:02:35.776Z,96380.71
2018-04-11T21:05:04.058Z,96378.83
2018-04-11T21:07:32.306Z,96368.83
2018-04-11T21:10:00.567Z,96363.70
2018-04-11T21:12:28.809Z,96369.86
2018-04-11T21:14:57.064Z,96369.23
2018-04-11T21:17:26.092Z,96358.18
2018-04-11T21:19:54.335Z,96365.85
2018-04-11T21:22:22.602Z,96368.66
2018-04-11T21:24:50.855Z,96359.17
2018-04-11T21:27:19.120Z,96361.93
2018-04-11T21:29:47.391Z,96358.88
2018-04-11T21:32:15.671Z,96362.45
2018-04-11T21:34:43.927Z,96354.01
2018-04-11T21:37:12.188Z,96350.99
2018-04-11T21:39:40.429Z,96348.73
2018-04-11T21:42:08.728Z,96345.72
2018-04-11T21:44:36.982Z,96349.47
2018-04-11T21:47:05.244Z,96342.27
2018-04-11T21:49:33.512Z,96343.22
2018-04-11T21:52:02.535Z,96347.25
2018-04-11T21:54:31.567Z,96347.98
2018-04-11T21:56:59.820Z,96343.33
2018-04-11T21:59:28.838Z,96339.72
2018-04-11T22:01:57.102Z,96335.72
2018-04-11T22:04:25.355Z,96330.65
2018-04-11T22:06:53.594Z,96328.13
2018-04-11T22:09:22.607Z,96326.06
2018-04-11T22:11:50.857Z,96326.91
2018-04-11T22:14:19.107Z,96321.45
2018-04-11T22:16:48.123Z,96314.98
2018-04-11T22:19:16.387Z,96312.95
2018-04-11T22:21:44.645Z,96316.34
2018-04-11T22:24:12.924Z,96317.44
2018-04-11T22:26:41.178Z,96304.22
2018-04-11T22:29:09.428Z,96298.09
2018-04-11T22:31:38.452Z,96296.45
2018-04-11T22:34:06.699Z,96294.39
2018-04-11T22:36:34.935Z,96287.66
2018-04-11T22:39:03.229Z,96278.13
2018-04-11T22:41:31.473Z,96277.42
2018-04-11T22:43:59.721Z,96278.55
2018-04-11T22:46:27.963Z,96271.73
2018-04-11T22:48:57.011Z,96255.49
2018-04-11T22:51:25.272Z,96262.25
2018-04-11T22:53:53.511Z,96258.53
2018-04-11T22:56:21.806Z,96262.05
2018-04-11T22:58:50.824Z,96251.30
2018-04-11T23:01:19.094Z,96251.30
2018-04-11T23:03:47.326Z,96247.84
2018-04-11T23:06:16.363Z,96247.69
2018-04-11T23:08:44.632Z,96241.34
2018-04-11T23:11:12.914Z,96240.98
2018-04-11T23:13:41.154Z,96236.02
2018-04-11T23:16:10.226Z,96229.42
2018-04-11T23:18:38.467Z,96221.95
2018-04-11T23:21:06.739Z,96217.64
2018-04-11T23:23:35.739Z,96219.45
2018-04-11T23:26:04.001Z,96217.47
2018-04-11T23:28:33.018Z,96207.91
2018-04-11T23:31:01.297Z,96210.53
2018-04-11T23:33:29.535Z,96210.13
2018-04-11T23:35:57.783Z,96206.20
2018-04-11T23:38:26.039Z,96209.75
2018-04-11T23:40:55.047Z,96209.94
2018-04-11T23:43:24.064Z,96203.81
2018-04-11T23:45:52.322Z,96198.20
2018-04-11T23:48:20.552Z,96196.84
2018-04-11T23:50:48.810Z,96187.06
2018-04-11T23:53:17.860Z,96188.39
2018-04-11T23:55:46.098Z,96181.27
2018-04-11T23:58:15.119Z,96174.08
